Time;durP1;ratioP1;P1;durP2;ratioP2;P2;SDS_P1;SDS_P2;PMS_P1;PMS_P2;Temp;Humidity;BMP_temperature;BMP_pressure;BME280_temperature;BME280_humidity;BME280_pressure;Samples;Min_cycle;Max_cycle;Signal;HPM_P1;HPM_P2
2020/03/09 00:01:10;;;;;;;6.1;5.5;;;;;;;5.64;72.48926;954.9185;;;;
2020/03/09 00:03:35;;;;;;;6.2;5.5;;;;;;;5.62;73.22559;954.8232;;;;
2020/03/09 00:06:00;;;;;;;6.7;5.7;;;;;;;5.71;73.03613;954.8942;;;;
2020/03/09 00:08:25;;;;;;;7.7;6;;;;;;;5.57;73.48926;954.8655;;;;
2020/03/09 00:10:50;;;;;;;7.1;5.5;;;;;;;5.58;73.17383;954.8892;;;;
2020/03/09 00:13:16;;;;;;;7.9;6.2;;;;;;;5.53;73.83594;954.8519;;;;
2020/03/09 00:15:41;;;;;;;6.4;5.5;;;;;;;5.53;73.04004;954.9037;;;;
2020/03/09 00:18:06;;;;;;;6.5;5.8;;;;;;;5.47;73.14453;954.9111;;;;
2020/03/09 00:20:31;;;;;;;6.9;5.6;;;;;;;5.52;72.62891;954.9285;;;;
2020/03/09 00:22:56;;;;;;;8;6.1;;;;;;;5.48;72.64355;954.9492;;;;
2020/03/09 00:25:22;;;;;;;7.9;5.5;;;;;;;5.48;72.06348;954.9694;;;;
2020/03/09 00:27:47;;;;;;;7.3;5.8;;;;;;;5.47;73.21191;954.9807;;;;
2020/03/09 00:30:12;;;;;;;7.4;5.4;;;;;;;5.46;72.73047;954.9881;;;;
2020/03/09 00:32:37;;;;;;;6.7;5.9;;;;;;;5.35;73.34863;955.0136;;;;
2020/03/09 00:35:02;;;;;;;6.8;5.6;;;;;;;5.33;74.16406;954.9914;;;;
2020/03/09 00:37:27;;;;;;;6.9;5.7;;;;;;;5.35;73.25879;955.0229;;;;
2020/03/09 00:39:52;;;;;;;7.1;5.1;;;;;;;5.35;72.14355;955.0128;;;;
2020/03/09 00:42:17;;;;;;;6;4.9;;;;;;;5.32;70.79688;954.9852;;;;
2020/03/09 00:44:42;;;;;;;7.5;5;;;;;;;5.29;70.37207;954.99;;;;
2020/03/09 00:47:08;;;;;;;5.8;4.8;;;;;;;5.33;69.12695;955.0666;;;;
2020/03/09 00:49:33;;;;;;;5.7;4.5;;;;;;;5.45;67.9873;955.0283;;;;
2020/03/09 00:51:58;;;;;;;6.1;4.3;;;;;;;5.51;67.66602;955.0455;;;;
2020/03/09 00:54:23;;;;;;;5.5;4.5;;;;;;;5.56;68.02734;955.105;;;;
2020/03/09 00:59:13;;;;;;;5.1;4.1;;;;;;;5.6;66.30371;955.0305;;;;
2020/03/09 01:01:40;;;;;;;6.3;3.9;;;;;;;5.67;65.62109;955.0519;;;;
2020/03/09 01:04:05;;;;;;;5.7;4;;;;;;;5.68;64.98535;955.052;;;;
2020/03/09 01:06:29;;;;;;;5.4;4.2;;;;;;;5.75;66.03125;955.0406;;;;
2020/03/09 01:08:54;;;;;;;5;3.8;;;;;;;5.82;64.7334;955.0839;;;;
2020/03/09 01:11:19;;;;;;;5.3;3.8;;;;;;;5.77;65.19336;955.0584;;;;
2020/03/09 01:13:44;;;;;;;4.8;3.8;;;;;;;5.89;64.97168;954.9832;;;;
2020/03/09 01:16:09;;;;;;;4.9;3.8;;;;;;;5.84;64.54297;955.0173;;;;
2020/03/09 01:18:34;;;;;;;4.8;3.6;;;;;;;5.88;63.83105;954.9894;;;;
2020/03/09 01:20:59;;;;;;;5.1;3.5;;;;;;;5.92;63.90625;955.0276;;;;
2020/03/09 01:23:24;;;;;;;6;3.7;;;;;;;5.88;63.94531;954.9441;;;;
2020/03/09 01:25:49;;;;;;;5.1;3.6;;;;;;;5.93;63.95313;954.9719;;;;
2020/03/09 01:28:14;;;;;;;4.8;3.3;;;;;;;5.89;63.66309;954.9355;;;;
2020/03/09 01:30:40;;;;;;;4.7;3.7;;;;;;;5.92;64.03125;954.9403;;;;
2020/03/09 01:33:05;;;;;;;5.1;3.6;;;;;;;5.93;64.12402;954.9921;;;;
2020/03/09 01:35:30;;;;;;;4.8;3.8;;;;;;;5.86;64.14844;954.9455;;;;
2020/03/09 01:37:56;;;;;;;4.6;4;;;;;;;5.9;66.06641;954.9027;;;;
2020/03/09 01:40:21;;;;;;;4.6;3.5;;;;;;;6;64.81738;954.9309;;;;
2020/03/09 01:42:47;;;;;;;5.4;3.7;;;;;;;5.98;65.57813;954.9436;;;;
2020/03/09 01:45:12;;;;;;;5.7;3.8;;;;;;;6.07;65.23828;954.892;;;;
2020/03/09 01:47:37;;;;;;;4.7;3.4;;;;;;;6.15;66.36719;954.8284;;;;
2020/03/09 01:50:02;;;;;;;4.9;3.8;;;;;;;6.1;67.2832;954.8367;;;;
2020/03/09 01:52:27;;;;;;;4;3.2;;;;;;;6.15;68.23535;954.8898;;;;
2020/03/09 01:54:52;;;;;;;4;3.1;;;;;;;6.1;69.21973;954.8508;;;;
2020/03/09 01:57:18;;;;;;;4.6;3.4;;;;;;;6.07;69.8623;954.8899;;;;
2020/03/09 01:59:43;;;;;;;4.4;3.5;;;;;;;5.97;71.56445;954.8467;;;;
2020/03/09 02:02:08;;;;;;;6;3.6;;;;;;;6;72.90332;954.8767;;;;
2020/03/09 02:04:33;;;;;;;4.7;3.7;;;;;;;5.86;72.60547;954.8625;;;;
2020/03/09 02:06:58;;;;;;;4.8;3.8;;;;;;;5.92;73.6748;954.8178;;;;
2020/03/09 02:09:23;;;;;;;4.9;3.7;;;;;;;5.86;74.02832;954.818;;;;
2020/03/09 02:11:48;;;;;;;5.1;3.5;;;;;;;5.87;73.17773;954.7992;;;;
2020/03/09 02:14:13;;;;;;;4.3;3.6;;;;;;;6.05;74.37012;954.7683;;;;
2020/03/09 02:16:39;;;;;;;4.4;3.6;;;;;;;5.83;74.50195;954.8334;;;;
2020/03/09 02:19:04;;;;;;;6.3;3.8;;;;;;;5.7;75.73145;954.7958;;;;
2020/03/09 02:21:29;;;;;;;4.3;3.4;;;;;;;5.78;77.05273;954.8005;;;;
2020/03/09 02:23:55;;;;;;;4.2;3.5;;;;;;;5.67;77.7373;954.7706;;;;
2020/03/09 02:26:20;;;;;;;5;3.9;;;;;;;5.59;78.9873;954.7527;;;;
2020/03/09 02:28:45;;;;;;;4.6;3.7;;;;;;;5.66;79.97949;954.7687;;;;
2020/03/09 02:31:10;;;;;;;4.9;3.9;;;;;;;5.5;82.40723;954.6911;;;;
2020/03/09 02:33:36;;;;;;;5.3;3.7;;;;;;;5.36;85.03906;954.7151;;;;
2020/03/09 02:36:01;;;;;;;6.1;4;;;;;;;5.32;86.15723;954.7211;;;;
2020/03/09 02:38:26;;;;;;;5.2;4.1;;;;;;;5.2;87.7002;954.6575;;;;
2020/03/09 02:40:52;;;;;;;4.5;4;;;;;;;5.34;88.28906;954.5845;;;;
2020/03/09 02:43:17;;;;;;;4.2;3.5;;;;;;;5.27;91.18457;954.5316;;;;
2020/03/09 02:45:42;;;;;;;4.7;3.5;;;;;;;5.23;90.36816;954.5326;;;;
2020/03/09 02:48:07;;;;;;;4.2;3.6;;;;;;;5.21;91.77344;954.5386;;;;
2020/03/09 02:50:32;;;;;;;4;3.2;;;;;;;5.32;92.11523;954.4584;;;;
2020/03/09 02:52:57;;;;;;;5;3.6;;;;;;;5.34;92.50586;954.5045;;;;
2020/03/09 02:55:23;;;;;;;4.7;3.6;;;;;;;5.33;92.49414;954.5036;;;;
2020/03/09 02:57:48;;;;;;;4.2;3.4;;;;;;;5.4;92.68945;954.4182;;;;
2020/03/09 03:00:13;;;;;;;5.7;3.4;;;;;;;5.36;93.51172;954.5489;;;;
2020/03/09 03:02:38;;;;;;;4.9;3.4;;;;;;;5.48;93.28711;954.5122;;;;
2020/03/09 03:05:03;;;;;;;4.1;3;;;;;;;5.57;92.8418;954.5059;;;;
2020/03/09 03:07:28;;;;;;;4.4;3.1;;;;;;;5.38;93.51367;954.4725;;;;
2020/03/09 03:09:53;;;;;;;4.9;3.1;;;;;;;5.48;94.43555;954.4305;;;;
2020/03/09 03:12:18;;;;;;;4.7;3.4;;;;;;;5.46;94.29297;954.4709;;;;
2020/03/09 03:14:44;;;;;;;4.2;3.4;;;;;;;5.51;94.69238;954.4669;;;;
2020/03/09 03:17:09;;;;;;;4.3;3.4;;;;;;;5.42;95.39063;954.4675;;;;
2020/03/09 03:19:35;;;;;;;5.2;3.5;;;;;;;5.34;96.16895;954.4634;;;;
2020/03/09 03:22:00;;;;;;;4.1;3.3;;;;;;;5.41;96.74902;954.4604;;;;
2020/03/09 03:24:25;;;;;;;4.4;3.4;;;;;;;5.46;96.83008;954.4313;;;;
2020/03/09 03:26:50;;;;;;;3.9;3.3;;;;;;;5.5;97.05566;954.489;;;;
2020/03/09 03:29:16;;;;;;;4.1;3.2;;;;;;;5.5;97.43164;954.472;;;;
2020/03/09 03:31:41;;;;;;;3.6;3.2;;;;;;;5.66;97.75195;954.473;;;;
2020/03/09 03:34:06;;;;;;;3.6;2.9;;;;;;;5.42;98.31152;954.4028;;;;
2020/03/09 03:36:32;;;;;;;4.6;3.2;;;;;;;5.49;98.95313;954.3427;;;;
2020/03/09 03:38:57;;;;;;;3.9;3.2;;;;;;;5.56;98.94727;954.3478;;;;
2020/03/09 03:41:22;;;;;;;3.8;2.9;;;;;;;5.5;99.29883;954.329;;;;
2020/03/09 03:43:47;;;;;;;3.9;2.9;;;;;;;5.47;99.32227;954.3168;;;;
2020/03/09 03:46:13;;;;;;;5.4;3.2;;;;;;;5.54;99.9209;954.3176;;;;
2020/03/09 03:48:38;;;;;;;5.5;3.5;;;;;;;5.51;100;954.2753;;;;
2020/03/09 03:51:03;;;;;;;4.4;3.1;;;;;;;5.58;100;954.3033;;;;
2020/03/09 03:53:28;;;;;;;5.3;3.3;;;;;;;5.42;100;954.255;;;;
2020/03/09 03:55:54;;;;;;;3.7;3.3;;;;;;;5.44;100;954.2219;;;;
2020/03/09 03:58:19;;;;;;;3.7;2.8;;;;;;;5.42;100;954.2227;;;;
2020/03/09 04:02:28;;;;;;;3.5;2.6;;;;;;;5.48;100;954.222;;;;
2020/03/09 04:04:53;;;;;;;4.2;3;;;;;;;5.42;100;954.2131;;;;
2020/03/09 04:07:18;;;;;;;4.2;2.6;;;;;;;5.46;100;954.1794;;;;
2020/03/09 04:09:43;;;;;;;4.1;2.7;;;;;;;5.45;100;954.1508;;;;
2020/03/09 04:12:08;;;;;;;4;2.6;;;;;;;5.5;100;954.1577;;;;
2020/03/09 04:14:33;;;;;;;3.6;2.7;;;;;;;5.47;100;954.1471;;;;
2020/03/09 04:16:59;;;;;;;4.1;2.6;;;;;;;5.43;100;954.193;;;;
2020/03/09 04:19:24;;;;;;;4.2;2.8;;;;;;;5.4;100;954.1379;;;;
2020/03/09 04:21:49;;;;;;;4.5;2.9;;;;;;;5.42;100;954.1184;;;;
2020/03/09 04:24:14;;;;;;;4.4;2.7;;;;;;;5.35;100;954.1282;;;;
2020/03/09 04:26:39;;;;;;;3.5;2.8;;;;;;;5.43;100;954.1292;;;;
2020/03/09 04:29:04;;;;;;;4.3;3.1;;;;;;;5.47;100;954.1019;;;;
2020/03/09 04:31:29;;;;;;;3.2;2.5;;;;;;;5.51;100;954.1519;;;;
2020/03/09 04:33:54;;;;;;;4.5;2.7;;;;;;;5.54;100;954.1345;;;;
2020/03/09 04:36:19;;;;;;;3.9;2.4;;;;;;;5.47;100;954.1423;;;;
2020/03/09 04:38:44;;;;;;;3.5;2.6;;;;;;;5.49;100;954.1721;;;;
2020/03/09 04:41:09;;;;;;;3.8;2.5;;;;;;;5.58;100;954.0892;;;;
2020/03/09 04:43:34;;;;;;;3.5;2.5;;;;;;;5.52;100;954.0446;;;;
2020/03/09 04:45:59;;;;;;;4.1;3;;;;;;;5.57;100;954.0824;;;;
2020/03/09 04:48:24;;;;;;;3.8;2.6;;;;;;;5.64;99.8877;954.0933;;;;
2020/03/09 04:50:50;;;;;;;4;2.7;;;;;;;5.62;99.97461;954.0942;;;;
2020/03/09 04:53:15;;;;;;;4;3.1;;;;;;;5.65;99.51367;954.0765;;;;
2020/03/09 04:55:40;;;;;;;3.9;3;;;;;;;5.74;99.85352;954.096;;;;
2020/03/09 04:58:05;;;;;;;3.5;2.9;;;;;;;5.76;98.86914;954.0951;;;;
2020/03/09 05:00:30;;;;;;;5.5;3;;;;;;;5.69;99.5;954.0503;;;;
2020/03/09 05:02:55;;;;;;;4.6;2.9;;;;;;;5.75;99.21582;954.077;;;;
2020/03/09 05:05:20;;;;;;;4.4;3;;;;;;;5.79;99.06934;954.058;;;;
2020/03/09 05:07:46;;;;;;;5;3.1;;;;;;;5.68;98.70313;954.0644;;;;
2020/03/09 05:10:11;;;;;;;4.3;3;;;;;;;5.77;99.1543;954.0403;;;;
2020/03/09 05:12:37;;;;;;;4.9;3.3;;;;;;;5.66;98.74219;954.0439;;;;
2020/03/09 05:15:02;;;;;;;4.4;3.4;;;;;;;5.6;98.97852;954.0145;;;;
2020/03/09 05:17:27;;;;;;;5;3.6;;;;;;;5.67;99.40625;954.0085;;;;
2020/03/09 05:19:52;;;;;;;4.3;3.1;;;;;;;5.8;100;954.0181;;;;
2020/03/09 05:22:18;;;;;;;5.3;3.4;;;;;;;5.77;99.56641;954.0366;;;;
2020/03/09 05:24:43;;;;;;;5.3;3.3;;;;;;;5.7;99.02344;954.1005;;;;
2020/03/09 05:27:08;;;;;;;5.1;3.4;;;;;;;5.71;99.57422;954.0669;;;;
2020/03/09 05:29:33;;;;;;;4.3;3.2;;;;;;;5.77;99.85938;954.0588;;;;
2020/03/09 05:31:59;;;;;;;4.8;4.3;;;;;;;5.76;100;954.0538;;;;
2020/03/09 05:34:24;;;;;;;7.2;4.8;;;;;;;5.68;100;954.0251;;;;
2020/03/09 05:36:49;;;;;;;7;4.6;;;;;;;5.69;100;954.0067;;;;
2020/03/09 05:39:15;;;;;;;6.7;4.5;;;;;;;5.72;100;954.0439;;;;
2020/03/09 05:41:40;;;;;;;5.9;4.3;;;;;;;5.65;100;954.0158;;;;
2020/03/09 05:44:05;;;;;;;5.2;4.3;;;;;;;5.63;100;953.9847;;;;
2020/03/09 05:46:30;;;;;;;6.8;4.1;;;;;;;5.63;100;953.9709;;;;
2020/03/09 05:48:55;;;;;;;6.6;4;;;;;;;5.66;100;953.9767;;;;
2020/03/09 05:51:20;;;;;;;6.2;4.1;;;;;;;5.67;100;953.9939;;;;
2020/03/09 05:53:45;;;;;;;5.1;4;;;;;;;5.77;100;954.0103;;;;
2020/03/09 05:56:10;;;;;;;5.2;3.9;;;;;;;5.67;100;953.9526;;;;
2020/03/09 05:58:36;;;;;;;6.5;4.1;;;;;;;5.62;100;953.9964;;;;
2020/03/09 06:01:01;;;;;;;6.7;4.1;;;;;;;5.66;100;953.9533;;;;
2020/03/09 06:03:26;;;;;;;6.4;3.9;;;;;;;5.69;100;953.9461;;;;
2020/03/09 06:05:53;;;;;;;4.7;3.6;;;;;;;5.72;100;953.9276;;;;
2020/03/09 06:08:16;;;;;;;3.8;3.1;;;;;;;5.78;99.56641;953.9494;;;;
2020/03/09 06:10:41;;;;;;;5.2;3.7;;;;;;;5.76;99.28906;953.9891;;;;
2020/03/09 06:13:06;;;;;;;6.1;3.9;;;;;;;5.71;100;954.0002;;;;
2020/03/09 06:15:31;;;;;;;5.2;3.6;;;;;;;5.74;99.53516;953.9344;;;;
2020/03/09 06:17:56;;;;;;;4.9;3.2;;;;;;;5.74;99.80762;953.9788;;;;
2020/03/09 06:20:22;;;;;;;4.9;3.5;;;;;;;5.78;99.57715;953.9688;;;;
2020/03/09 06:22:47;;;;;;;4.8;3.6;;;;;;;5.83;98.67969;953.9983;;;;
2020/03/09 06:25:12;;;;;;;5;3.7;;;;;;;5.81;98.90039;953.9882;;;;
2020/03/09 06:27:37;;;;;;;4.4;3.5;;;;;;;5.92;98.38086;954.0678;;;;
2020/03/09 06:30:02;;;;;;;3.6;3;;;;;;;6.01;97.29688;954.1184;;;;
2020/03/09 06:32:27;;;;;;;5.3;3.6;;;;;;;5.89;97.8418;954.1183;;;;
2020/03/09 06:34:52;;;;;;;5.1;3.6;;;;;;;5.98;97.49609;954.101;;;;
2020/03/09 06:37:17;;;;;;;4;3.3;;;;;;;6.1;97.73926;954.1774;;;;
2020/03/09 06:39:42;;;;;;;4.4;3.6;;;;;;;6.05;97.93359;954.1505;;;;
2020/03/09 06:42:07;;;;;;;4.5;3.1;;;;;;;6.13;97.36914;954.2438;;;;
2020/03/09 06:44:32;;;;;;;3.8;3.4;;;;;;;6.14;97.76953;954.224;;;;
2020/03/09 06:46:57;;;;;;;5;3.5;;;;;;;6.28;97.57715;954.296;;;;
2020/03/09 06:49:23;;;;;;;4.7;3.5;;;;;;;6.3;96.7832;954.2856;;;;
2020/03/09 06:51:48;;;;;;;5.1;3.9;;;;;;;6.27;98.0166;954.3553;;;;
2020/03/09 06:54:13;;;;;;;4.5;3.7;;;;;;;6.29;97.75879;954.4069;;;;
2020/03/09 06:56:38;;;;;;;4.6;3.6;;;;;;;6.18;97.70215;954.3084;;;;
2020/03/09 06:59:04;;;;;;;5.4;4;;;;;;;6.27;97.7207;954.4506;;;;
2020/03/09 07:01:29;;;;;;;5.6;4.1;;;;;;;6.27;96.86621;954.454;;;;
2020/03/09 07:03:54;;;;;;;5.8;4.1;;;;;;;6.34;96.84863;954.4804;;;;
2020/03/09 07:06:21;;;;;;;7.3;4.1;;;;;;;6.25;96.44043;954.5264;;;;
2020/03/09 07:08:46;;;;;;;5.5;3.7;;;;;;;6.24;96.5752;954.5592;;;;
2020/03/09 07:11:11;;;;;;;6.5;4.3;;;;;;;6.21;96.85156;954.5842;;;;
2020/03/09 07:13:36;;;;;;;5.3;3.9;;;;;;;6.22;96.89941;954.5568;;;;
2020/03/09 07:16:14;;;;;;;4.2;3.8;;;;;;;6.09;97.57715;954.572;;;;
2020/03/09 07:18:26;;;;;;;4.7;4;;;;;;;6.18;97.80273;954.6707;;;;
2020/03/09 07:20:52;;;;;;;4.4;4;;;;;;;6.16;98.26563;954.7092;;;;
2020/03/09 07:23:17;;;;;;;6;4.2;;;;;;;6.14;98.3418;954.7952;;;;
2020/03/09 07:25:42;;;;;;;4.5;4.1;;;;;;;6.2;98.65234;954.7442;;;;
2020/03/09 07:28:08;;;;;;;4.9;4.2;;;;;;;6.22;98.42871;954.7922;;;;
2020/03/09 07:30:33;;;;;;;6.1;4.3;;;;;;;6.16;98.97168;954.7554;;;;
2020/03/09 07:32:59;;;;;;;4.6;4.1;;;;;;;6.13;98.96582;954.8172;;;;
2020/03/09 07:35:24;;;;;;;5.2;3.9;;;;;;;6.08;98.72559;954.8209;;;;
2020/03/09 07:37:49;;;;;;;5.2;4.1;;;;;;;6.23;99.63574;954.8493;;;;
2020/03/09 07:40:14;;;;;;;5.1;4;;;;;;;6.24;99.28711;954.916;;;;
2020/03/09 07:42:39;;;;;;;5.1;4.3;;;;;;;6.07;100;954.8745;;;;
2020/03/09 07:45:04;;;;;;;6.7;4.5;;;;;;;6.12;100;954.9158;;;;
2020/03/09 07:47:30;;;;;;;6.1;4;;;;;;;6.09;100;954.8929;;;;
2020/03/09 07:49:55;;;;;;;5;4.1;;;;;;;5.98;100;954.9448;;;;
2020/03/09 07:52:20;;;;;;;5.9;4.2;;;;;;;6.12;100;954.9684;;;;
2020/03/09 07:54:46;;;;;;;6.2;4.2;;;;;;;6.11;100;954.9745;;;;
2020/03/09 07:57:11;;;;;;;5.2;4.4;;;;;;;6.14;100;955.0524;;;;
2020/03/09 07:59:36;;;;;;;4.7;4.2;;;;;;;6.15;100;955.0945;;;;
2020/03/09 08:02:02;;;;;;;7;4.5;;;;;;;6.23;100;955.1195;;;;
2020/03/09 08:04:27;;;;;;;6.8;4.9;;;;;;;6.1;100;955.2006;;;;
2020/03/09 08:06:52;;;;;;;7.7;4.8;;;;;;;6.16;100;955.267;;;;
2020/03/09 08:09:18;;;;;;;7.1;5.1;;;;;;;6.17;100;955.2853;;;;
2020/03/09 08:11:50;;;;;;;6.6;4.9;;;;;;;6.08;100;955.3127;;;;
2020/03/09 08:14:08;;;;;;;8.2;5.3;;;;;;;6.05;100;955.3192;;;;
2020/03/09 08:16:33;;;;;;;8.5;6.1;;;;;;;6.08;100;955.3386;;;;
2020/03/09 08:18:58;;;;;;;6;5;;;;;;;6.11;100;955.405;;;;
2020/03/09 08:21:23;;;;;;;6.6;4.9;;;;;;;6.23;100;955.4561;;;;
2020/03/09 08:23:49;;;;;;;5.5;4.7;;;;;;;6.17;100;955.4989;;;;
2020/03/09 08:26:14;;;;;;;6;4.7;;;;;;;6.38;100;955.5112;;;;
2020/03/09 08:28:39;;;;;;;6.9;4.6;;;;;;;6.3;99.81445;955.6125;;;;
2020/03/09 08:31:04;;;;;;;5.3;4.5;;;;;;;6.36;100;955.6063;;;;
2020/03/09 08:33:29;;;;;;;5.7;5.1;;;;;;;6.29;100;955.6697;;;;
2020/03/09 08:35:59;;;;;;;7.4;5;;;;;;;6.16;100;955.6792;;;;
2020/03/09 08:38:24;;;;;;;5.8;4.7;;;;;;;6.33;100;955.683;;;;
2020/03/09 08:40:49;;;;;;;5.3;4.2;;;;;;;6.22;100;955.7347;;;;
2020/03/09 08:43:15;;;;;;;5.5;3.9;;;;;;;6.22;99.81641;955.7662;;;;
2020/03/09 08:45:55;;;;;;;5.2;3.4;;;;;;;6.39;98.59277;955.8254;;;;
2020/03/09 08:48:05;;;;;;;4;3.1;;;;;;;6.44;96.66699;955.9055;;;;
2020/03/09 08:50:30;;;;;;;4.1;3.1;;;;;;;6.49;95.74219;955.9395;;;;
2020/03/09 08:52:55;;;;;;;2.7;2.4;;;;;;;6.5;94.80762;955.9752;;;;
2020/03/09 08:55:20;;;;;;;2.9;2.6;;;;;;;6.54;95.95801;955.9656;;;;
2020/03/09 08:57:45;;;;;;;3.8;3.1;;;;;;;6.41;97.26367;956.0245;;;;
2020/03/09 09:00:10;;;;;;;3.3;2.6;;;;;;;6.41;95.70215;956.0325;;;;
2020/03/09 09:02:35;;;;;;;3.2;2.2;;;;;;;6.28;94.75098;956.0168;;;;
2020/03/09 09:05:01;;;;;;;3.1;1.8;;;;;;;6.43;94.0625;956.0603;;;;
2020/03/09 09:07:26;;;;;;;2.5;1.8;;;;;;;6.42;95.23633;956.0941;;;;
2020/03/09 09:09:51;;;;;;;2.8;2.1;;;;;;;6.34;93.79395;956.0906;;;;
2020/03/09 09:12:16;;;;;;;2.8;1.5;;;;;;;6.59;95.27246;956.1097;;;;
2020/03/09 09:14:41;;;;;;;2.5;1.6;;;;;;;6.95;93.86035;956.1636;;;;
2020/03/09 09:17:06;;;;;;;2;1.3;;;;;;;7.03;91.19434;956.1565;;;;
2020/03/09 09:19:31;;;;;;;4;1.5;;;;;;;7.02;92.33398;956.2098;;;;
2020/03/09 09:21:56;;;;;;;2.7;1.3;;;;;;;6.99;92.55566;956.1564;;;;
2020/03/09 09:24:21;;;;;;;2;1.5;;;;;;;6.9;92.78809;956.1799;;;;
2020/03/09 09:26:46;;;;;;;2.4;1.3;;;;;;;6.96;91.93164;956.2519;;;;
2020/03/09 09:29:12;;;;;;;1.7;1.2;;;;;;;7;92.08789;956.2941;;;;
2020/03/09 09:31:37;;;;;;;2.3;1.8;;;;;;;6.92;91.53418;956.2825;;;;
2020/03/09 09:34:02;;;;;;;2.2;1.2;;;;;;;7.11;91.62207;956.3427;;;;
2020/03/09 09:36:27;;;;;;;2.2;1.4;;;;;;;7.05;92.19141;956.3549;;;;
2020/03/09 09:38:52;;;;;;;2.2;1.5;;;;;;;7.16;90.86816;956.3976;;;;
2020/03/09 09:41:17;;;;;;;3.2;1.6;;;;;;;6.93;89.20801;956.405;;;;
2020/03/09 09:43:42;;;;;;;2.9;1.5;;;;;;;7.02;90.5752;956.4001;;;;
2020/03/09 09:46:07;;;;;;;4;1.7;;;;;;;7.15;91.18457;956.5165;;;;
2020/03/09 09:48:33;;;;;;;4.8;2.1;;;;;;;7.25;90.78516;956.4843;;;;
2020/03/09 09:50:58;;;;;;;4;2;;;;;;;6.99;91.49414;956.486;;;;
2020/03/09 09:53:23;;;;;;;4.1;2.2;;;;;;;7.01;89.74023;956.5175;;;;
2020/03/09 09:55:48;;;;;;;5.1;2.1;;;;;;;7.14;90.23633;956.5558;;;;
2020/03/09 09:58:13;;;;;;;3.4;1.9;;;;;;;7.19;89.69824;956.5248;;;;
2020/03/09 10:00:38;;;;;;;3.5;1.9;;;;;;;7.27;90.2041;956.5785;;;;
2020/03/09 10:03:03;;;;;;;3.2;2.1;;;;;;;7.09;91.16211;956.5623;;;;
2020/03/09 10:05:28;;;;;;;3.3;1.9;;;;;;;7.11;89.7041;956.5452;;;;
2020/03/09 10:07:53;;;;;;;3.4;1.6;;;;;;;7.33;89.40625;956.5829;;;;
2020/03/09 10:10:18;;;;;;;3.4;2;;;;;;;7.41;89.43652;956.6311;;;;
2020/03/09 10:12:44;;;;;;;3.4;1.7;;;;;;;7.37;89.11719;956.6348;;;;
2020/03/09 10:15:09;;;;;;;5.1;3.7;;;;;;;7.07;90.90527;956.6593;;;;
2020/03/09 10:17:34;;;;;;;4.3;1.8;;;;;;;7.23;91.16699;956.6675;;;;
2020/03/09 10:19:59;;;;;;;4;1.8;;;;;;;6.98;91.42188;956.6763;;;;
2020/03/09 10:22:24;;;;;;;3;1.5;;;;;;;7.09;89.82617;956.762;;;;
2020/03/09 10:24:50;;;;;;;3.2;1.9;;;;;;;6.94;91.01563;956.7081;;;;
2020/03/09 10:27:15;;;;;;;3.8;1.8;;;;;;;6.98;90.49805;956.741;;;;
2020/03/09 10:29:40;;;;;;;4;2.7;;;;;;;7.08;91.61621;956.7551;;;;
2020/03/09 10:32:05;;;;;;;5.3;3;;;;;;;6.98;91.80078;956.7564;;;;
2020/03/09 10:34:30;;;;;;;2.8;2.2;;;;;;;7;91.06055;956.7023;;;;
2020/03/09 10:36:55;;;;;;;3.6;1.6;;;;;;;7.22;88.36719;956.7378;;;;
2020/03/09 10:39:20;;;;;;;3;1.6;;;;;;;7.41;89.22852;956.7097;;;;
2020/03/09 10:41:45;;;;;;;3;2;;;;;;;7.17;89.2832;956.7745;;;;
2020/03/09 10:44:11;;;;;;;2.8;1.6;;;;;;;7.09;89.0957;956.7888;;;;
2020/03/09 10:46:36;;;;;;;3.1;1.9;;;;;;;7.24;89.85742;956.8035;;;;
2020/03/09 10:49:01;;;;;;;4;1.9;;;;;;;7.56;88.97461;956.8677;;;;
2020/03/09 10:51:26;;;;;;;3.2;1.9;;;;;;;7.41;88.08789;956.8694;;;;
2020/03/09 10:53:51;;;;;;;1.8;1.3;;;;;;;7.53;87.35742;956.9308;;;;
2020/03/09 10:56:16;;;;;;;2.5;1.3;;;;;;;7.59;87.40332;956.8781;;;;
2020/03/09 10:58:41;;;;;;;4.1;1.4;;;;;;;7.61;86.64258;956.9006;;;;
2020/03/09 11:01:07;;;;;;;1.7;1.2;;;;;;;7.92;85.61719;956.9448;;;;
2020/03/09 11:03:32;;;;;;;3.1;2.2;;;;;;;8.03;85.02148;957.0044;;;;
2020/03/09 11:05:57;;;;;;;2;1.7;;;;;;;8.06;85.40527;956.9509;;;;
2020/03/09 11:08:23;;;;;;;2.3;1.5;;;;;;;8.01;86.16211;956.9723;;;;
2020/03/09 11:10:48;;;;;;;2;1.2;;;;;;;7.87;85.76855;956.9869;;;;
2020/03/09 11:13:13;;;;;;;1.9;1.3;;;;;;;7.86;86.66895;956.9587;;;;
2020/03/09 11:15:39;;;;;;;2.5;1.6;;;;;;;7.73;87.31934;956.9874;;;;
2020/03/09 11:18:04;;;;;;;4.3;2.2;;;;;;;7.86;88.71582;956.962;;;;
2020/03/09 11:20:30;;;;;;;1.8;1.3;;;;;;;7.98;87.33496;957.0299;;;;
2020/03/09 11:22:55;;;;;;;1.4;1.1;;;;;;;8.03;86.10938;957.0653;;;;
2020/03/09 11:25:20;;;;;;;4.4;1.6;;;;;;;7.83;83.50879;957.0392;;;;
2020/03/09 11:27:45;;;;;;;2.8;1.5;;;;;;;7.77;84.95996;956.993;;;;
2020/03/09 11:30:10;;;;;;;2.7;1.3;;;;;;;8.11;81.67383;957.0698;;;;
2020/03/09 11:32:36;;;;;;;2.8;1.7;;;;;;;8.1;82.22168;956.9883;;;;
2020/03/09 11:35:01;;;;;;;2.2;1.3;;;;;;;8.64;81.76367;957.0034;;;;
2020/03/09 11:37:26;;;;;;;3.3;1.3;;;;;;;8.77;78.55664;957;;;;
2020/03/09 11:39:52;;;;;;;2.5;1.3;;;;;;;8.44;79.27344;956.978;;;;
2020/03/09 11:42:17;;;;;;;2.4;1.2;;;;;;;8.35;80.90527;956.9302;;;;
2020/03/09 11:44:42;;;;;;;2.3;1.1;;;;;;;8.43;78.98535;956.9508;;;;
2020/03/09 11:47:07;;;;;;;2.4;1.3;;;;;;;8.31;79.16016;956.9778;;;;
2020/03/09 11:49:32;;;;;;;2.3;1;;;;;;;8.22;78.30469;956.9229;;;;
2020/03/09 11:51:57;;;;;;;4.1;1.4;;;;;;;8.18;76.85645;956.9464;;;;
2020/03/09 11:54:22;;;;;;;3.3;0.9;;;;;;;8.4;77.73242;956.9249;;;;
2020/03/09 11:56:47;;;;;;;3.9;1.4;;;;;;;8.23;76.29297;956.9152;;;;
2020/03/09 11:59:12;;;;;;;2.7;1.3;;;;;;;8.11;76.77637;956.9001;;;;
2020/03/09 12:01:38;;;;;;;2.8;1.3;;;;;;;8.37;75.75586;956.9077;;;;
2020/03/09 12:04:03;;;;;;;3.5;1.6;;;;;;;8.38;74.56836;956.9147;;;;
2020/03/09 12:06:29;;;;;;;4.1;1.5;;;;;;;8.6;74.93945;956.9003;;;;
2020/03/09 12:08:54;;;;;;;5.5;2.7;;;;;;;8.72;74.50098;956.864;;;;
2020/03/09 12:11:19;;;;;;;3.1;1.3;;;;;;;8.99;75.14551;956.8762;;;;
2020/03/09 12:13:44;;;;;;;2.8;1.3;;;;;;;8.92;74.20313;956.813;;;;
2020/03/09 12:16:09;;;;;;;2.9;1.5;;;;;;;8.96;74.14063;956.8308;;;;
2020/03/09 12:18:34;;;;;;;3.4;1.4;;;;;;;8.57;74.05078;956.8639;;;;
2020/03/09 12:21:00;;;;;;;4;1.6;;;;;;;8.43;74.33594;956.8948;;;;
2020/03/09 12:23:25;;;;;;;3.9;1.5;;;;;;;8.52;73.72266;956.7872;;;;
2020/03/09 12:25:52;;;;;;;4.2;1.4;;;;;;;8.24;74.09766;956.8513;;;;
2020/03/09 12:28:17;;;;;;;5.6;1.5;;;;;;;8.58;75.50781;956.8178;;;;
2020/03/09 12:30:42;;;;;;;3.3;1.6;;;;;;;8.75;73.96875;956.8289;;;;
2020/03/09 12:33:07;;;;;;;4;1.5;;;;;;;8.71;74.62598;956.8833;;;;
2020/03/09 12:35:32;;;;;;;3.6;1.3;;;;;;;8.6;72.96875;956.8801;;;;
2020/03/09 12:37:57;;;;;;;4.9;2.8;;;;;;;8.49;74.2207;956.8709;;;;
2020/03/09 12:40:22;;;;;;;3;1.3;;;;;;;8.42;73.28027;956.8817;;;;
2020/03/09 12:42:48;;;;;;;3.5;1.4;;;;;;;8.48;73.54297;956.8578;;;;
2020/03/09 12:45:13;;;;;;;5.1;1.4;;;;;;;8.6;72.49805;956.9197;;;;
2020/03/09 12:47:38;;;;;;;3.1;1.5;;;;;;;8.28;74.17188;956.8706;;;;
2020/03/09 12:50:03;;;;;;;5.3;1.9;;;;;;;8.31;74.65918;956.9429;;;;
2020/03/09 12:52:28;;;;;;;3.7;1.3;;;;;;;8.43;73.91211;956.9305;;;;
2020/03/09 12:54:54;;;;;;;5.1;1.6;;;;;;;8.5;74.35938;956.9453;;;;
2020/03/09 12:57:19;;;;;;;5;2;;;;;;;8.22;74.4375;956.9213;;;;
2020/03/09 12:59:44;;;;;;;3.6;1.3;;;;;;;8.34;73.77051;956.959;;;;
2020/03/09 13:02:09;;;;;;;4.5;1.3;;;;;;;8.53;73.99902;956.9363;;;;
2020/03/09 13:04:34;;;;;;;3.6;1.3;;;;;;;8.46;73.45898;956.9636;;;;
2020/03/09 13:07:00;;;;;;;3.3;1.3;;;;;;;8.42;74.63184;956.945;;;;
2020/03/09 13:09:25;;;;;;;3.2;1.1;;;;;;;8.45;73.56152;957.0058;;;;
2020/03/09 13:11:50;;;;;;;3.7;1.4;;;;;;;8.62;73.22363;957.0292;;;;
2020/03/09 13:14:16;;;;;;;4.6;1.8;;;;;;;8.7;72.72168;957.0219;;;;
2020/03/09 13:16:41;;;;;;;4.5;1.3;;;;;;;8.61;72.27051;957.0336;;;;
2020/03/09 13:19:06;;;;;;;6;2.8;;;;;;;8.61;72.72852;957.058;;;;
2020/03/09 13:21:31;;;;;;;7.9;4.2;;;;;;;8.34;73.11914;957.0208;;;;
2020/03/09 13:23:57;;;;;;;3.9;1.1;;;;;;;8.55;73.52148;957.064;;;;
2020/03/09 13:26:22;;;;;;;2.6;1;;;;;;;8.34;75.31641;957.0231;;;;
2020/03/09 13:28:47;;;;;;;3.4;1.3;;;;;;;8.45;73.1377;957.0327;;;;
2020/03/09 13:31:12;;;;;;;2.7;1.1;;;;;;;8.36;72.88086;957.044;;;;
2020/03/09 13:33:37;;;;;;;2.8;1;;;;;;;8.47;70.89648;957.0616;;;;
2020/03/09 13:36:02;;;;;;;2.3;1.1;;;;;;;8.53;72.43945;957.0703;;;;
2020/03/09 13:38:27;;;;;;;3.1;1;;;;;;;8.55;71.40234;957.1346;;;;
2020/03/09 13:40:52;;;;;;;2.6;1;;;;;;;8.5;72.29785;957.1077;;;;
2020/03/09 13:43:18;;;;;;;2.4;0.8;;;;;;;8.3;73.46484;957.1253;;;;
2020/03/09 13:45:43;;;;;;;2.6;1.1;;;;;;;8.56;71.62109;957.1465;;;;
2020/03/09 13:48:08;;;;;;;3.3;1;;;;;;;8.84;70.37207;957.1817;;;;
2020/03/09 13:50:33;;;;;;;2.1;0.8;;;;;;;8.7;70.42969;957.181;;;;
2020/03/09 13:52:59;;;;;;;2.2;0.8;;;;;;;8.93;70.09961;957.1813;;;;
2020/03/09 13:55:24;;;;;;;2.2;1;;;;;;;8.93;70.19043;957.2219;;;;
2020/03/09 13:57:49;;;;;;;2.4;0.8;;;;;;;8.89;68.12207;957.1781;;;;
2020/03/09 14:00:15;;;;;;;1.8;0.7;;;;;;;8.94;69.64258;957.1529;;;;
2020/03/09 14:02:40;;;;;;;2.1;0.7;;;;;;;8.78;69.52637;957.1894;;;;
2020/03/09 14:05:05;;;;;;;1.8;0.7;;;;;;;8.92;68.08008;957.1519;;;;
2020/03/09 14:07:30;;;;;;;1.4;0.7;;;;;;;9.24;69.35938;957.173;;;;
2020/03/09 14:09:55;;;;;;;1.9;0.7;;;;;;;9.34;66.78125;957.1752;;;;
2020/03/09 14:12:21;;;;;;;1.5;0.8;;;;;;;9.11;67.81348;957.1542;;;;
2020/03/09 14:14:46;;;;;;;2.1;0.8;;;;;;;9.09;67.72852;957.1227;;;;
2020/03/09 14:17:11;;;;;;;1.5;0.6;;;;;;;9.26;65.97754;957.1873;;;;
2020/03/09 14:19:36;;;;;;;2.2;0.9;;;;;;;9.12;65.25684;957.2152;;;;
2020/03/09 14:22:02;;;;;;;2.4;0.7;;;;;;;8.89;66.03516;957.2342;;;;
2020/03/09 14:24:27;;;;;;;2.3;0.9;;;;;;;8.74;66.31055;957.1959;;;;
2020/03/09 14:26:53;;;;;;;2;0.8;;;;;;;8.83;66.2207;957.1914;;;;
2020/03/09 14:29:18;;;;;;;2.1;0.7;;;;;;;8.76;67.10352;957.2067;;;;
2020/03/09 14:31:43;;;;;;;1.2;0.8;;;;;;;8.97;65.40625;957.2595;;;;
2020/03/09 14:34:08;;;;;;;2.4;0.8;;;;;;;8.77;66.43945;957.2542;;;;
2020/03/09 14:36:33;;;;;;;2;0.9;;;;;;;8.83;65.98047;957.275;;;;
2020/03/09 14:38:59;;;;;;;2.2;1;;;;;;;8.94;67.0166;957.2576;;;;
2020/03/09 14:41:24;;;;;;;2.2;0.9;;;;;;;8.95;67.6377;957.2907;;;;
2020/03/09 14:43:49;;;;;;;4.1;1;;;;;;;9.07;66.01563;957.2712;;;;